Edgar, Florida
Current Conditions -  °F | °C
As of 4:35 PM on Saturday 22 Nov 2014 (Local Time) from K28J Reporting Station
Overcast Overcast  
Wind Chill: 66°   Ceiling: 6000
Heat Index: 66°   Visibility: 10mi
Dew Point: 66°   Wind: 10mph
Humidity: 100%   Direction: 110°ESE
Pressure: 30.19"   Gusts: NA
Location:  29.5949°N, 81.9506°W
Report Text: K28J 222135Z AUTO 11009KT 10SM OVC060 19/19 A3019 RMK AO2
Loading
Personal Weather Stations






























Interactive Weather Map New forecast layout! Learn more

10-Day Weather Forecast

Advertisements
Track Severe Weather on mobile